sensor_id;sensor_type;location;lat;lon;timestamp;pressure;altitude;pressure_sealevel;temperature;humidity
13695;BME280;6919;52.344;14.518;2023-07-20T00:01:47;100266.63;;;16.96;100.00
13695;BME280;6919;52.344;14.518;2023-07-20T00:04:16;100268.28;;;16.97;100.00
13695;BME280;6919;52.344;14.518;2023-07-20T00:06:44;100259.56;;;17.01;100.00
13695;BME280;6919;52.344;14.518;2023-07-20T00:09:12;100261.41;;;16.88;100.00
13695;BME280;6919;52.344;14.518;2023-07-20T00:11:49;100263.09;;;16.95;100.00
13695;BME280;6919;52.344;14.518;2023-07-20T00:14:18;100256.22;;;16.99;100.00
13695;BME280;6919;52.344;14.518;2023-07-20T00:16:47;100261.63;;;16.93;100.00
13695;BME280;6919;52.344;14.518;2023-07-20T00:19:23;100266.19;;;16.86;100.00
13695;BME280;6919;52.344;14.518;2023-07-20T00:21:52;100266.97;;;16.73;100.00
13695;BME280;6919;52.344;14.518;2023-07-20T00:24:20;100277.56;;;16.68;100.00
13695;BME280;6919;52.344;14.518;2023-07-20T00:26:50;100284.44;;;16.64;100.00
13695;BME280;6919;52.344;14.518;2023-07-20T00:29:18;100280.22;;;16.62;100.00
13695;BME280;6919;52.344;14.518;2023-07-20T00:31:47;100278.97;;;16.58;100.00
13695;BME280;6919;52.344;14.518;2023-07-20T00:34:18;100289.00;;;16.64;100.00
13695;BME280;6919;52.344;14.518;2023-07-20T00:36:46;100293.75;;;16.55;100.00
13695;BME280;6919;52.344;14.518;2023-07-20T00:39:16;100295.06;;;16.38;100.00
13695;BME280;6919;52.344;14.518;2023-07-20T00:41:44;100299.13;;;16.49;100.00
13695;BME280;6919;52.344;14.518;2023-07-20T00:44:14;100286.22;;;16.51;100.00
13695;BME280;6919;52.344;14.518;2023-07-20T00:46:42;100296.66;;;16.60;100.00
13695;BME280;6919;52.344;14.518;2023-07-20T00:49:11;100292.75;;;16.63;100.00
13695;BME280;6919;52.344;14.518;2023-07-20T00:51:39;100302.94;;;16.61;100.00
13695;BME280;6919;52.344;14.518;2023-07-20T00:54:09;100298.09;;;16.56;100.00
13695;BME280;6919;52.344;14.518;2023-07-20T00:56:37;100298.47;;;16.47;100.00
13695;BME280;6919;52.344;14.518;2023-07-20T00:59:07;100303.31;;;16.58;100.00
13695;BME280;6919;52.344;14.518;2023-07-20T01:01:36;100313.59;;;16.69;100.00
13695;BME280;6919;52.344;14.518;2023-07-20T01:04:05;100311.50;;;16.64;100.00
13695;BME280;6919;52.344;14.518;2023-07-20T01:06:43;100306.09;;;16.64;100.00
13695;BME280;6919;52.344;14.518;2023-07-20T01:09:17;100303.50;;;16.50;100.00
13695;BME280;6919;52.344;14.518;2023-07-20T01:12:02;100318.06;;;16.49;100.00
13695;BME280;6919;52.344;14.518;2023-07-20T01:14:32;100327.63;;;16.45;100.00
13695;BME280;6919;52.344;14.518;2023-07-20T01:17:02;100322.88;;;16.26;100.00
13695;BME280;6919;52.344;14.518;2023-07-20T01:19:30;100330.78;;;16.27;100.00
13695;BME280;6919;52.344;14.518;2023-07-20T01:22:07;100342.25;;;16.29;100.00
13695;BME280;6919;52.344;14.518;2023-07-20T01:25:04;100332.94;;;16.38;100.00
13695;BME280;6919;52.344;14.518;2023-07-20T01:28:16;100338.34;;;16.38;100.00
13695;BME280;6919;52.344;14.518;2023-07-20T01:30:59;100349.56;;;16.35;100.00
13695;BME280;6919;52.344;14.518;2023-07-20T01:33:34;100339.78;;;16.34;100.00
13695;BME280;6919;52.344;14.518;2023-07-20T01:36:03;100343.38;;;16.14;100.00
13695;BME280;6919;52.344;14.518;2023-07-20T01:38:33;100360.63;;;16.13;100.00
13695;BME280;6919;52.344;14.518;2023-07-20T01:41:02;100356.22;;;16.05;100.00
13695;BME280;6919;52.344;14.518;2023-07-20T01:43:31;100362.66;;;16.04;100.00
13695;BME280;6919;52.344;14.518;2023-07-20T01:45:59;100357.38;;;15.96;100.00
13695;BME280;6919;52.344;14.518;2023-07-20T01:48:28;100367.09;;;16.12;100.00
13695;BME280;6919;52.344;14.518;2023-07-20T01:50:57;100365.47;;;15.96;100.00
13695;BME280;6919;52.344;14.518;2023-07-20T01:53:26;100371.56;;;15.77;100.00
13695;BME280;6919;52.344;14.518;2023-07-20T01:55:54;100380.03;;;15.74;100.00
13695;BME280;6919;52.344;14.518;2023-07-20T01:58:22;100393.00;;;15.79;100.00
13695;BME280;6919;52.344;14.518;2023-07-20T02:00:51;100397.56;;;15.78;100.00
13695;BME280;6919;52.344;14.518;2023-07-20T02:03:19;100388.69;;;15.84;100.00
13695;BME280;6919;52.344;14.518;2023-07-20T02:05:51;100393.50;;;15.89;100.00
13695;BME280;6919;52.344;14.518;2023-07-20T02:08:20;100387.31;;;15.95;100.00
13695;BME280;6919;52.344;14.518;2023-07-20T02:10:49;100397.22;;;15.88;100.00
13695;BME280;6919;52.344;14.518;2023-07-20T02:13:17;100411.66;;;15.95;100.00
13695;BME280;6919;52.344;14.518;2023-07-20T02:15:46;100410.69;;;16.02;100.00
13695;BME280;6919;52.344;14.518;2023-07-20T02:18:16;100411.94;;;16.00;100.00
13695;BME280;6919;52.344;14.518;2023-07-20T02:20:44;100411.22;;;15.91;100.00
13695;BME280;6919;52.344;14.518;2023-07-20T02:23:12;100403.47;;;15.88;100.00
13695;BME280;6919;52.344;14.518;2023-07-20T02:25:42;100406.84;;;15.69;100.00
13695;BME280;6919;52.344;14.518;2023-07-20T02:28:13;100405.66;;;15.78;100.00
13695;BME280;6919;52.344;14.518;2023-07-20T02:30:42;100412.34;;;15.82;100.00
13695;BME280;6919;52.344;14.518;2023-07-20T02:33:10;100417.38;;;15.85;100.00
13695;BME280;6919;52.344;14.518;2023-07-20T02:35:40;100416.13;;;15.67;100.00
13695;BME280;6919;52.344;14.518;2023-07-20T02:38:08;100418.03;;;15.66;100.00
13695;BME280;6919;52.344;14.518;2023-07-20T02:40:36;100420.41;;;15.76;100.00
13695;BME280;6919;52.344;14.518;2023-07-20T02:43:09;100426.38;;;15.71;100.00
13695;BME280;6919;52.344;14.518;2023-07-20T02:45:40;100424.41;;;15.80;100.00
13695;BME280;6919;52.344;14.518;2023-07-20T02:48:09;100429.44;;;15.83;100.00
13695;BME280;6919;52.344;14.518;2023-07-20T02:50:38;100434.25;;;15.87;100.00
13695;BME280;6919;52.344;14.518;2023-07-20T02:53:08;100442.91;;;15.97;100.00
13695;BME280;6919;52.344;14.518;2023-07-20T02:55:36;100441.22;;;15.96;100.00
13695;BME280;6919;52.344;14.518;2023-07-20T02:58:05;100442.50;;;16.00;100.00
13695;BME280;6919;52.344;14.518;2023-07-20T03:00:35;100445.72;;;16.10;100.00
13695;BME280;6919;52.344;14.518;2023-07-20T03:03:03;100443.81;;;16.04;100.00
13695;BME280;6919;52.344;14.518;2023-07-20T03:05:36;100432.09;;;15.97;100.00
13695;BME280;6919;52.344;14.518;2023-07-20T03:08:06;100434.66;;;16.05;100.00
13695;BME280;6919;52.344;14.518;2023-07-20T03:10:39;100435.09;;;16.09;100.00
13695;BME280;6919;52.344;14.518;2023-07-20T03:13:08;100440.97;;;16.12;100.00
13695;BME280;6919;52.344;14.518;2023-07-20T03:15:38;100437.78;;;16.09;100.00
13695;BME280;6919;52.344;14.518;2023-07-20T03:18:06;100433.88;;;16.11;100.00
13695;BME280;6919;52.344;14.518;2023-07-20T03:20:35;100441.88;;;16.19;100.00
13695;BME280;6919;52.344;14.518;2023-07-20T03:23:06;100421.03;;;16.20;100.00
13695;BME280;6919;52.344;14.518;2023-07-20T03:25:34;100422.06;;;16.19;100.00
13695;BME280;6919;52.344;14.518;2023-07-20T03:28:04;100428.00;;;16.08;100.00
13695;BME280;6919;52.344;14.518;2023-07-20T03:30:33;100420.78;;;16.15;100.00
13695;BME280;6919;52.344;14.518;2023-07-20T03:33:02;100432.13;;;16.04;100.00
13695;BME280;6919;52.344;14.518;2023-07-20T03:35:31;100421.50;;;16.02;100.00
13695;BME280;6919;52.344;14.518;2023-07-20T03:38:00;100431.47;;;16.02;100.00
13695;BME280;6919;52.344;14.518;2023-07-20T03:40:28;100434.78;;;15.97;100.00
13695;BME280;6919;52.344;14.518;2023-07-20T03:42:56;100438.97;;;16.00;100.00
13695;BME280;6919;52.344;14.518;2023-07-20T03:45:24;100450.13;;;16.11;100.00
13695;BME280;6919;52.344;14.518;2023-07-20T03:47:52;100441.22;;;16.17;100.00
13695;BME280;6919;52.344;14.518;2023-07-20T03:50:22;100438.06;;;16.14;100.00
13695;BME280;6919;52.344;14.518;2023-07-20T03:52:50;100437.22;;;16.13;100.00
13695;BME280;6919;52.344;14.518;2023-07-20T03:55:19;100445.34;;;16.13;100.00
13695;BME280;6919;52.344;14.518;2023-07-20T03:57:47;100445.91;;;16.09;100.00
13695;BME280;6919;52.344;14.518;2023-07-20T04:00:18;100462.03;;;16.17;100.00
13695;BME280;6919;52.344;14.518;2023-07-20T04:02:46;100464.22;;;16.07;100.00
13695;BME280;6919;52.344;14.518;2023-07-20T04:05:15;100467.13;;;16.05;100.00
13695;BME280;6919;52.344;14.518;2023-07-20T04:07:45;100480.63;;;16.05;100.00
13695;BME280;6919;52.344;14.518;2023-07-20T04:10:13;100488.56;;;16.07;100.00
13695;BME280;6919;52.344;14.518;2023-07-20T04:12:42;100490.41;;;16.06;100.00
13695;BME280;6919;52.344;14.518;2023-07-20T04:15:11;100489.19;;;16.09;100.00
13695;BME280;6919;52.344;14.518;2023-07-20T04:17:40;100503.53;;;16.24;100.00
13695;BME280;6919;52.344;14.518;2023-07-20T04:20:09;100503.44;;;16.17;100.00
13695;BME280;6919;52.344;14.518;2023-07-20T04:22:37;100497.63;;;16.20;100.00
13695;BME280;6919;52.344;14.518;2023-07-20T04:25:08;100502.53;;;16.31;100.00
13695;BME280;6919;52.344;14.518;2023-07-20T04:27:36;100492.75;;;16.30;100.00
13695;BME280;6919;52.344;14.518;2023-07-20T04:30:08;100481.06;;;16.30;100.00
13695;BME280;6919;52.344;14.518;2023-07-20T04:32:37;100481.78;;;16.59;100.00
13695;BME280;6919;52.344;14.518;2023-07-20T04:35:26;100473.69;;;16.59;100.00
13695;BME280;6919;52.344;14.518;2023-07-20T04:38:06;100462.69;;;16.67;100.00
13695;BME280;6919;52.344;14.518;2023-07-20T04:40:36;100457.34;;;16.74;100.00
13695;BME280;6919;52.344;14.518;2023-07-20T04:43:04;100436.94;;;16.71;100.00
13695;BME280;6919;52.344;14.518;2023-07-20T04:45:33;100439.81;;;16.70;100.00
13695;BME280;6919;52.344;14.518;2023-07-20T04:48:01;100438.03;;;16.83;100.00
13695;BME280;6919;52.344;14.518;2023-07-20T04:50:29;100434.94;;;16.86;100.00
13695;BME280;6919;52.344;14.518;2023-07-20T04:52:57;100429.94;;;16.90;100.00
13695;BME280;6919;52.344;14.518;2023-07-20T04:55:26;100422.84;;;16.82;100.00
13695;BME280;6919;52.344;14.518;2023-07-20T04:57:55;100412.59;;;16.78;100.00
13695;BME280;6919;52.344;14.518;2023-07-20T05:00:24;100414.66;;;16.76;100.00
13695;BME280;6919;52.344;14.518;2023-07-20T05:02:53;100409.50;;;16.87;100.00
13695;BME280;6919;52.344;14.518;2023-07-20T05:05:21;100408.03;;;16.78;100.00
13695;BME280;6919;52.344;14.518;2023-07-20T05:07:50;100407.78;;;16.80;100.00
13695;BME280;6919;52.344;14.518;2023-07-20T05:10:19;100412.78;;;16.76;100.00
13695;BME280;6919;52.344;14.518;2023-07-20T05:12:47;100406.69;;;16.68;100.00
13695;BME280;6919;52.344;14.518;2023-07-20T05:15:17;100412.22;;;16.87;100.00
13695;BME280;6919;52.344;14.518;2023-07-20T05:17:45;100412.88;;;16.89;100.00
13695;BME280;6919;52.344;14.518;2023-07-20T05:20:15;100407.00;;;16.86;100.00
13695;BME280;6919;52.344;14.518;2023-07-20T05:22:44;100418.91;;;17.32;100.00
13695;BME280;6919;52.344;14.518;2023-07-20T05:25:12;100413.03;;;17.22;100.00
13695;BME280;6919;52.344;14.518;2023-07-20T05:27:41;100396.00;;;17.34;100.00
13695;BME280;6919;52.344;14.518;2023-07-20T05:30:10;100377.25;;;17.39;100.00
13695;BME280;6919;52.344;14.518;2023-07-20T05:32:40;100378.81;;;17.62;100.00
13695;BME280;6919;52.344;14.518;2023-07-20T05:35:09;100368.00;;;17.81;100.00
13695;BME280;6919;52.344;14.518;2023-07-20T05:37:39;100355.25;;;17.69;100.00
13695;BME280;6919;52.344;14.518;2023-07-20T05:40:09;100364.84;;;17.65;100.00
13695;BME280;6919;52.344;14.518;2023-07-20T05:42:39;100361.94;;;17.66;100.00
13695;BME280;6919;52.344;14.518;2023-07-20T05:45:08;100359.03;;;17.94;100.00
13695;BME280;6919;52.344;14.518;2023-07-20T05:47:36;100356.53;;;17.86;100.00
13695;BME280;6919;52.344;14.518;2023-07-20T05:50:07;100353.59;;;17.81;100.00
13695;BME280;6919;52.344;14.518;2023-07-20T05:52:36;100367.59;;;17.84;100.00
13695;BME280;6919;52.344;14.518;2023-07-20T05:55:07;100349.47;;;17.85;100.00
13695;BME280;6919;52.344;14.518;2023-07-20T05:57:36;100351.97;;;17.93;100.00
13695;BME280;6919;52.344;14.518;2023-07-20T06:00:10;100348.78;;;17.57;100.00
13695;BME280;6919;52.344;14.518;2023-07-20T06:02:41;100354.00;;;17.58;100.00
13695;BME280;6919;52.344;14.518;2023-07-20T06:05:11;100347.53;;;17.66;100.00
13695;BME280;6919;52.344;14.518;2023-07-20T06:07:40;100353.16;;;17.58;100.00
13695;BME280;6919;52.344;14.518;2023-07-20T06:10:09;100358.38;;;17.59;100.00
13695;BME280;6919;52.344;14.518;2023-07-20T06:12:37;100358.97;;;17.61;100.00
13695;BME280;6919;52.344;14.518;2023-07-20T06:15:24;100357.56;;;17.65;100.00
13695;BME280;6919;52.344;14.518;2023-07-20T06:17:54;100353.38;;;17.76;100.00
13695;BME280;6919;52.344;14.518;2023-07-20T06:20:25;100366.75;;;17.84;100.00
13695;BME280;6919;52.344;14.518;2023-07-20T06:22:53;100371.97;;;17.79;100.00
13695;BME280;6919;52.344;14.518;2023-07-20T06:25:22;100361.97;;;17.99;100.00
13695;BME280;6919;52.344;14.518;2023-07-20T06:27:50;100348.63;;;18.04;100.00
13695;BME280;6919;52.344;14.518;2023-07-20T06:30:19;100349.66;;;18.35;100.00
13695;BME280;6919;52.344;14.518;2023-07-20T06:32:48;100346.47;;;18.84;100.00
13695;BME280;6919;52.344;14.518;2023-07-20T06:35:17;100320.63;;;19.12;100.00
13695;BME280;6919;52.344;14.518;2023-07-20T06:37:47;100323.88;;;19.40;100.00
13695;BME280;6919;52.344;14.518;2023-07-20T06:40:15;100315.84;;;19.52;100.00
13695;BME280;6919;52.344;14.518;2023-07-20T06:42:47;100316.72;;;19.46;100.00
13695;BME280;6919;52.344;14.518;2023-07-20T06:45:18;100310.50;;;19.70;100.00
13695;BME280;6919;52.344;14.518;2023-07-20T06:47:47;100311.97;;;19.97;100.00
13695;BME280;6919;52.344;14.518;2023-07-20T06:50:15;100302.84;;;20.16;100.00
13695;BME280;6919;52.344;14.518;2023-07-20T06:52:45;100315.00;;;20.07;100.00
13695;BME280;6919;52.344;14.518;2023-07-20T06:55:15;100306.88;;;20.32;100.00
13695;BME280;6919;52.344;14.518;2023-07-20T06:57:50;100295.38;;;20.30;100.00
13695;BME280;6919;52.344;14.518;2023-07-20T07:00:19;100298.94;;;20.30;100.00
13695;BME280;6919;52.344;14.518;2023-07-20T07:02:48;100297.09;;;21.03;100.00
13695;BME280;6919;52.344;14.518;2023-07-20T07:05:17;100300.94;;;21.43;100.00
13695;BME280;6919;52.344;14.518;2023-07-20T07:07:49;100303.22;;;20.98;100.00
13695;BME280;6919;52.344;14.518;2023-07-20T07:10:17;100314.19;;;20.31;100.00
13695;BME280;6919;52.344;14.518;2023-07-20T07:12:46;100313.91;;;19.90;100.00
13695;BME280;6919;52.344;14.518;2023-07-20T07:15:14;100322.75;;;19.85;100.00
13695;BME280;6919;52.344;14.518;2023-07-20T07:17:43;100322.34;;;19.51;100.00
13695;BME280;6919;52.344;14.518;2023-07-20T07:20:12;100331.34;;;19.82;100.00
13695;BME280;6919;52.344;14.518;2023-07-20T07:22:50;100334.84;;;20.21;100.00
13695;BME280;6919;52.344;14.518;2023-07-20T07:25:19;100325.06;;;20.38;100.00
13695;BME280;6919;52.344;14.518;2023-07-20T07:27:50;100321.94;;;20.34;100.00
13695;BME280;6919;52.344;14.518;2023-07-20T07:30:20;100322.16;;;20.08;100.00
13695;BME280;6919;52.344;14.518;2023-07-20T07:32:48;100324.38;;;20.17;100.00
13695;BME280;6919;52.344;14.518;2023-07-20T07:35:16;100325.03;;;19.88;100.00
13695;BME280;6919;52.344;14.518;2023-07-20T07:37:45;100330.31;;;20.08;100.00
13695;BME280;6919;52.344;14.518;2023-07-20T07:40:33;100331.44;;;20.68;100.00
13695;BME280;6919;52.344;14.518;2023-07-20T07:43:02;100325.41;;;21.20;100.00
13695;BME280;6919;52.344;14.518;2023-07-20T07:45:31;100323.22;;;21.10;100.00
13695;BME280;6919;52.344;14.518;2023-07-20T07:47:59;100335.13;;;20.55;100.00
13695;BME280;6919;52.344;14.518;2023-07-20T07:50:28;100332.28;;;20.68;100.00
13695;BME280;6919;52.344;14.518;2023-07-20T07:52:56;100331.66;;;20.84;100.00
13695;BME280;6919;52.344;14.518;2023-07-20T07:55:25;100338.31;;;20.70;100.00
13695;BME280;6919;52.344;14.518;2023-07-20T07:57:56;100332.44;;;21.09;100.00
13695;BME280;6919;52.344;14.518;2023-07-20T08:00:25;100336.88;;;21.40;100.00
13695;BME280;6919;52.344;14.518;2023-07-20T08:02:54;100330.53;;;20.92;100.00
13695;BME280;6919;52.344;14.518;2023-07-20T08:05:22;100329.25;;;20.34;100.00
13695;BME280;6919;52.344;14.518;2023-07-20T08:07:51;100336.25;;;20.48;100.00
13695;BME280;6919;52.344;14.518;2023-07-20T08:10:20;100341.97;;;20.82;100.00
13695;BME280;6919;52.344;14.518;2023-07-20T08:12:48;100334.16;;;21.22;100.00
13695;BME280;6919;52.344;14.518;2023-07-20T08:15:18;100332.06;;;21.24;100.00
13695;BME280;6919;52.344;14.518;2023-07-20T08:17:46;100341.59;;;20.79;100.00
13695;BME280;6919;52.344;14.518;2023-07-20T08:20:16;100344.66;;;20.22;100.00
13695;BME280;6919;52.344;14.518;2023-07-20T08:22:44;100342.88;;;19.78;100.00
13695;BME280;6919;52.344;14.518;2023-07-20T08:25:14;100347.53;;;20.02;100.00
13695;BME280;6919;52.344;14.518;2023-07-20T08:27:43;100345.44;;;20.04;100.00
13695;BME280;6919;52.344;14.518;2023-07-20T08:30:13;100341.44;;;20.00;100.00
13695;BME280;6919;52.344;14.518;2023-07-20T08:32:43;100342.50;;;19.74;100.00
13695;BME280;6919;52.344;14.518;2023-07-20T08:35:11;100339.97;;;20.04;100.00
13695;BME280;6919;52.344;14.518;2023-07-20T08:37:42;100345.94;;;20.44;100.00
13695;BME280;6919;52.344;14.518;2023-07-20T08:40:12;100333.44;;;20.97;100.00
13695;BME280;6919;52.344;14.518;2023-07-20T08:42:43;100329.41;;;20.99;100.00
13695;BME280;6919;52.344;14.518;2023-07-20T08:45:13;100339.06;;;20.10;100.00
13695;BME280;6919;52.344;14.518;2023-07-20T08:47:48;100347.06;;;20.11;100.00
13695;BME280;6919;52.344;14.518;2023-07-20T08:50:17;100341.69;;;20.48;100.00
13695;BME280;6919;52.344;14.518;2023-07-20T08:52:46;100336.03;;;20.85;100.00
13695;BME280;6919;52.344;14.518;2023-07-20T08:55:15;100345.97;;;20.80;100.00
13695;BME280;6919;52.344;14.518;2023-07-20T08:57:46;100343.84;;;20.82;100.00
13695;BME280;6919;52.344;14.518;2023-07-20T09:00:16;100335.16;;;20.91;100.00
13695;BME280;6919;52.344;14.518;2023-07-20T09:02:47;100344.31;;;21.15;100.00
13695;BME280;6919;52.344;14.518;2023-07-20T09:05:17;100340.91;;;21.67;100.00
13695;BME280;6919;52.344;14.518;2023-07-20T09:07:46;100340.38;;;21.58;100.00
13695;BME280;6919;52.344;14.518;2023-07-20T09:10:15;100336.69;;;21.53;100.00
13695;BME280;6919;52.344;14.518;2023-07-20T09:12:44;100343.13;;;21.88;100.00
13695;BME280;6919;52.344;14.518;2023-07-20T09:15:12;100340.72;;;22.44;100.00
13695;BME280;6919;52.344;14.518;2023-07-20T09:17:47;100341.69;;;21.56;100.00
13695;BME280;6919;52.344;14.518;2023-07-20T09:20:17;100336.75;;;21.64;100.00
13695;BME280;6919;52.344;14.518;2023-07-20T09:22:51;100337.88;;;22.50;100.00
13695;BME280;6919;52.344;14.518;2023-07-20T09:25:22;100340.63;;;22.50;100.00
13695;BME280;6919;52.344;14.518;2023-07-20T09:27:55;100342.53;;;22.50;100.00
13695;BME280;6919;52.344;14.518;2023-07-20T09:30:26;100345.81;;;22.17;100.00
13695;BME280;6919;52.344;14.518;2023-07-20T09:32:59;100341.06;;;22.24;100.00
13695;BME280;6919;52.344;14.518;2023-07-20T09:35:28;100349.56;;;21.93;100.00
13695;BME280;6919;52.344;14.518;2023-07-20T09:38:09;100344.88;;;21.53;100.00
13695;BME280;6919;52.344;14.518;2023-07-20T09:40:41;100341.34;;;21.64;100.00
13695;BME280;6919;52.344;14.518;2023-07-20T09:43:12;100336.88;;;21.69;100.00
13695;BME280;6919;52.344;14.518;2023-07-20T09:45:45;100348.88;;;20.85;100.00
13695;BME280;6919;52.344;14.518;2023-07-20T09:48:17;100351.31;;;21.58;100.00
13695;BME280;6919;52.344;14.518;2023-07-20T09:50:53;100341.06;;;21.54;100.00
13695;BME280;6919;52.344;14.518;2023-07-20T09:53:24;100343.56;;;21.55;100.00
13695;BME280;6919;52.344;14.518;2023-07-20T09:55:54;100334.00;;;21.94;100.00
13695;BME280;6919;52.344;14.518;2023-07-20T09:58:22;100336.28;;;22.08;100.00
13695;BME280;6919;52.344;14.518;2023-07-20T10:00:52;100345.22;;;22.38;100.00
13695;BME280;6919;52.344;14.518;2023-07-20T10:03:29;100343.00;;;22.58;100.00
13695;BME280;6919;52.344;14.518;2023-07-20T10:06:06;100327.97;;;22.03;98.51
13695;BME280;6919;52.344;14.518;2023-07-20T10:08:39;100344.97;;;22.17;100.00
13695;BME280;6919;52.344;14.518;2023-07-20T10:11:15;100340.25;;;22.47;98.21
13695;BME280;6919;52.344;14.518;2023-07-20T10:13:44;100329.31;;;22.93;98.08
13695;BME280;6919;52.344;14.518;2023-07-20T10:16:22;100332.75;;;22.42;96.31
13695;BME280;6919;52.344;14.518;2023-07-20T10:19:05;100326.22;;;21.20;100.00
13695;BME280;6919;52.344;14.518;2023-07-20T10:21:43;100330.31;;;21.59;100.00
13695;BME280;6919;52.344;14.518;2023-07-20T10:24:17;100332.88;;;21.42;100.00
13695;BME280;6919;52.344;14.518;2023-07-20T10:26:46;100332.88;;;21.54;100.00
13695;BME280;6919;52.344;14.518;2023-07-20T10:29:15;100339.81;;;21.56;100.00
13695;BME280;6919;52.344;14.518;2023-07-20T10:31:44;100342.94;;;21.71;100.00
13695;BME280;6919;52.344;14.518;2023-07-20T10:34:14;100340.88;;;21.37;100.00
13695;BME280;6919;52.344;14.518;2023-07-20T10:36:46;100335.66;;;21.36;100.00
13695;BME280;6919;52.344;14.518;2023-07-20T10:39:26;100332.66;;;22.37;100.00
13695;BME280;6919;52.344;14.518;2023-07-20T10:42:02;100330.41;;;23.20;98.68
13695;BME280;6919;52.344;14.518;2023-07-20T10:44:31;100323.97;;;23.66;95.79
13695;BME280;6919;52.344;14.518;2023-07-20T10:47:00;100325.53;;;23.34;91.16
13695;BME280;6919;52.344;14.518;2023-07-20T10:49:33;100325.91;;;23.26;94.39
13695;BME280;6919;52.344;14.518;2023-07-20T10:52:05;100329.53;;;23.03;92.18
13695;BME280;6919;52.344;14.518;2023-07-20T10:54:47;100339.06;;;22.77;94.02
13695;BME280;6919;52.344;14.518;2023-07-20T10:57:29;100332.53;;;21.50;100.00
13695;BME280;6919;52.344;14.518;2023-07-20T11:00:10;100334.91;;;21.76;100.00
13695;BME280;6919;52.344;14.518;2023-07-20T11:02:47;100336.75;;;22.05;97.41
13695;BME280;6919;52.344;14.518;2023-07-20T11:05:37;100335.22;;;21.39;98.00
13695;BME280;6919;52.344;14.518;2023-07-20T11:08:10;100329.13;;;21.55;98.52
13695;BME280;6919;52.344;14.518;2023-07-20T11:10:39;100337.81;;;21.63;100.00
13695;BME280;6919;52.344;14.518;2023-07-20T11:13:21;100339.88;;;21.50;100.00
13695;BME280;6919;52.344;14.518;2023-07-20T11:16:04;100339.78;;;21.74;100.00
13695;BME280;6919;52.344;14.518;2023-07-20T11:18:34;100339.34;;;21.71;100.00
13695;BME280;6919;52.344;14.518;2023-07-20T11:21:11;100342.09;;;21.71;100.00
13695;BME280;6919;52.344;14.518;2023-07-20T11:23:40;100344.56;;;21.90;100.00
13695;BME280;6919;52.344;14.518;2023-07-20T11:26:08;100350.56;;;22.22;100.00
13695;BME280;6919;52.344;14.518;2023-07-20T11:28:38;100345.38;;;22.55;99.93
13695;BME280;6919;52.344;14.518;2023-07-20T11:31:06;100349.44;;;22.52;100.00
13695;BME280;6919;52.344;14.518;2023-07-20T11:33:35;100337.53;;;22.81;92.21
13695;BME280;6919;52.344;14.518;2023-07-20T11:36:04;100344.78;;;22.64;90.49
13695;BME280;6919;52.344;14.518;2023-07-20T11:38:54;100343.53;;;22.14;91.33
13695;BME280;6919;52.344;14.518;2023-07-20T11:41:23;100337.59;;;22.98;91.87
13695;BME280;6919;52.344;14.518;2023-07-20T11:43:53;100344.69;;;23.90;86.64
13695;BME280;6919;52.344;14.518;2023-07-20T11:46:22;100337.09;;;24.41;70.13
13695;BME280;6919;52.344;14.518;2023-07-20T11:48:57;100335.47;;;24.78;66.36
13695;BME280;6919;52.344;14.518;2023-07-20T11:51:27;100336.25;;;24.95;62.34
13695;BME280;6919;52.344;14.518;2023-07-20T11:53:58;100333.84;;;24.28;63.85
13695;BME280;6919;52.344;14.518;2023-07-20T11:56:26;100327.22;;;23.79;65.02
13695;BME280;6919;52.344;14.518;2023-07-20T11:58:55;100327.91;;;23.19;70.06
13695;BME280;6919;52.344;14.518;2023-07-20T12:01:27;100322.41;;;22.91;71.00
13695;BME280;6919;52.344;14.518;2023-07-20T12:03:56;100328.44;;;23.04;70.77
13695;BME280;6919;52.344;14.518;2023-07-20T12:06:26;100338.75;;;22.62;76.53
13695;BME280;6919;52.344;14.518;2023-07-20T12:08:59;100342.75;;;22.71;83.65
13695;BME280;6919;52.344;14.518;2023-07-20T12:11:35;100338.34;;;22.82;77.84
13695;BME280;6919;52.344;14.518;2023-07-20T12:14:04;100339.31;;;22.76;78.10
13695;BME280;6919;52.344;14.518;2023-07-20T12:16:44;100340.97;;;22.65;77.52
13695;BME280;6919;52.344;14.518;2023-07-20T12:19:13;100335.50;;;22.65;80.26
13695;BME280;6919;52.344;14.518;2023-07-20T12:21:42;100343.50;;;23.30;79.40
13695;BME280;6919;52.344;14.518;2023-07-20T12:24:12;100331.56;;;23.36;75.10
13695;BME280;6919;52.344;14.518;2023-07-20T12:26:40;100340.53;;;23.59;72.99
13695;BME280;6919;52.344;14.518;2023-07-20T12:29:08;100344.31;;;23.30;74.41
13695;BME280;6919;52.344;14.518;2023-07-20T12:31:37;100344.25;;;23.25;75.82
13695;BME280;6919;52.344;14.518;2023-07-20T12:34:05;100338.22;;;23.68;72.07
13695;BME280;6919;52.344;14.518;2023-07-20T12:36:35;100334.50;;;24.02;70.53
13695;BME280;6919;52.344;14.518;2023-07-20T12:39:03;100344.09;;;23.32;70.56
13695;BME280;6919;52.344;14.518;2023-07-20T12:41:33;100339.66;;;24.48;67.09
13695;BME280;6919;52.344;14.518;2023-07-20T12:44:01;100330.13;;;24.17;67.21
13695;BME280;6919;52.344;14.518;2023-07-20T12:46:29;100340.41;;;25.19;65.94
13695;BME280;6919;52.344;14.518;2023-07-20T12:49:02;100338.06;;;24.52;61.55
13695;BME280;6919;52.344;14.518;2023-07-20T12:51:30;100339.75;;;23.75;67.33
13695;BME280;6919;52.344;14.518;2023-07-20T12:53:58;100330.00;;;23.00;69.67
13695;BME280;6919;52.344;14.518;2023-07-20T12:56:26;100334.88;;;22.86;72.46
13695;BME280;6919;52.344;14.518;2023-07-20T12:58:59;100350.00;;;22.89;72.67